Time,TemperatureF,DewpointF,PressureIn,WindDirection,WindDirectionDegrees,WindSpeedMPH,WindSpeedGustMPH,Humidity,HourlyPrecipIn,Conditions,Clouds,dailyrainin,SoftwareType,DateUTC
2013-05-08 00:01:00,40.0,40.0,-100.00,West,261,6.0,11.0,99,-99.99,,,-99.99,,2013-05-08 07:01:00,
2013-05-08 00:11:00,40.0,40.0,-100.00,West,263,6.0,12.0,99,-99.99,,,-99.99,,2013-05-08 07:11:00,
2013-05-08 00:21:00,40.0,39.0,-100.00,WSW,239,5.0,11.0,98,-99.99,,,-99.99,,2013-05-08 07:21:00,
2013-05-08 00:31:00,40.0,39.0,-100.00,SW,229,5.0,8.0,97,-99.99,,,-99.99,,2013-05-08 07:31:00,
2013-05-08 00:42:00,40.0,39.0,-100.00,SW,236,5.0,9.0,97,-99.99,,,-99.99,,2013-05-08 07:42:00,
2013-05-08 00:52:00,39.0,38.0,-100.00,SW,236,2.0,5.0,97,-99.99,,,-99.99,,2013-05-08 07:52:00,
2013-05-08 01:01:00,39.0,38.0,-100.00,SW,215,3.0,5.0,97,-99.99,,,-99.99,,2013-05-08 08:01:00,
2013-05-08 01:11:00,39.0,38.0,-100.00,SSE,161,2.0,5.0,95,-99.99,,,-99.99,,2013-05-08 08:11:00,
2013-05-08 01:21:00,39.0,36.0,-100.00,ENE,70,0.0,1.0,90,-99.99,,,-99.99,,2013-05-08 08:21:00,
2013-05-08 01:31:00,39.0,36.0,-100.00,ENE,70,0.0,1.0,90,-99.99,,,-99.99,,2013-05-08 08:31:00,
2013-05-08 01:42:00,40.0,37.0,-100.00,SW,226,1.0,3.0,89,-99.99,,,-99.99,,2013-05-08 08:42:00,
2013-05-08 01:51:00,40.0,37.0,-100.00,West,263,2.0,3.0,89,-99.99,,,-99.99,,2013-05-08 08:51:00,
2013-05-08 02:01:00,39.0,35.0,-100.00,SSW,206,2.0,4.0,87,-99.99,,,-99.99,,2013-05-08 09:01:00,
2013-05-08 02:11:00,39.0,35.0,-100.00,SW,236,2.0,4.0,86,-99.99,,,-99.99,,2013-05-08 09:11:00,
2013-05-08 02:21:00,39.0,35.0,-100.00,West,270,1.0,3.0,85,-99.99,,,-99.99,,2013-05-08 09:21:00,
2013-05-08 02:32:00,39.0,35.0,-100.00,South,191,1.0,5.0,84,-99.99,,,-99.99,,2013-05-08 09:32:00,
2013-05-08 02:42:00,40.0,35.0,-100.00,SSW,192,3.0,6.0,83,-99.99,,,-99.99,,2013-05-08 09:42:00,
2013-05-08 02:52:00,40.0,36.0,-100.00,SW,230,3.0,7.0,84,-99.99,,,-99.99,,2013-05-08 09:52:00,
2013-05-08 03:02:00,39.0,35.0,-100.00,WSW,251,3.0,4.0,87,-99.99,,,-99.99,,2013-05-08 10:02:00,
2013-05-08 03:12:00,39.0,36.0,-100.00,West,261,3.0,6.0,88,-99.99,,,-99.99,,2013-05-08 10:12:00,
2013-05-08 03:22:00,39.0,36.0,-100.00,SSW,213,3.0,9.0,90,-99.99,,,-99.99,,2013-05-08 10:22:00,
2013-05-08 03:33:00,39.0,36.0,-100.00,SW,224,4.0,7.0,90,-99.99,,,-99.99,,2013-05-08 10:33:00,
2013-05-08 03:42:00,39.0,36.0,-100.00,SSW,201,6.0,12.0,90,-99.99,,,-99.99,,2013-05-08 10:42:00,
2013-05-08 03:52:00,39.0,37.0,-100.00,West,262,5.0,9.0,91,-99.99,,,-99.99,,2013-05-08 10:52:00,
2013-05-08 04:02:00,40.0,37.0,-100.00,West,264,7.0,11.0,88,-99.99,,,-99.99,,2013-05-08 11:02:00,
2013-05-08 04:11:00,40.0,36.0,-100.00,West,267,6.0,10.0,87,-99.99,,,-99.99,,2013-05-08 11:11:00,
2013-05-08 04:22:00,39.0,36.0,-100.00,WSW,255,6.0,10.0,88,-99.99,,,-99.99,,2013-05-08 11:22:00,
2013-05-08 04:32:00,39.0,37.0,-100.00,WSW,255,4.0,10.0,91,-99.99,,,-99.99,,2013-05-08 11:32:00,
2013-05-08 04:41:00,39.0,37.0,-100.00,WSW,253,3.0,7.0,93,-99.99,,,-99.99,,2013-05-08 11:41:00,
2013-05-08 04:52:00,39.0,38.0,-100.00,WSW,241,7.0,12.0,96,-99.99,,,-99.99,,2013-05-08 11:52:00,
2013-05-08 05:01:00,39.0,38.0,-100.00,WSW,241,7.0,12.0,96,-99.99,,,-99.99,,2013-05-08 12:01:00,
2013-05-08 05:11:00,39.0,38.0,-100.00,SW,225,5.0,10.0,98,-99.99,,,-99.99,,2013-05-08 12:11:00,
2013-05-08 05:21:00,39.0,38.0,-100.00,WSW,245,5.0,11.0,97,-99.99,,,-99.99,,2013-05-08 12:21:00,
2013-05-08 05:31:00,39.0,38.0,-100.00,SW,224,6.0,14.0,97,-99.99,,,-99.99,,2013-05-08 12:31:00,
2013-05-08 05:41:00,39.0,38.0,-100.00,SW,224,6.0,14.0,97,-99.99,,,-99.99,,2013-05-08 12:41:00,
2013-05-08 05:51:00,39.0,38.0,-100.00,SW,229,7.0,11.0,98,-99.99,,,-99.99,,2013-05-08 12:51:00,
2013-05-08 06:01:00,39.0,39.0,-100.00,WSW,251,4.0,7.0,99,-99.99,,,-99.99,,2013-05-08 13:01:00,
2013-05-08 06:11:00,40.0,40.0,-100.00,West,277,2.0,5.0,99,-99.99,,,-99.99,,2013-05-08 13:11:00,
2013-05-08 06:21:00,40.0,40.0,-100.00,West,260,2.0,5.0,99,-99.99,,,-99.99,,2013-05-08 13:21:00,
2013-05-08 06:32:00,40.0,40.0,-100.00,West,280,3.0,5.0,99,-99.99,,,-99.99,,2013-05-08 13:32:00,
2013-05-08 06:42:00,40.0,40.0,-100.00,West,272,4.0,7.0,99,-99.99,,,-99.99,,2013-05-08 13:42:00,
2013-05-08 06:52:00,40.0,40.0,-100.00,West,265,4.0,8.0,99,-99.99,,,-99.99,,2013-05-08 13:52:00,
2013-05-08 07:02:00,40.0,40.0,-100.00,West,265,4.0,8.0,99,-99.99,,,-99.99,,2013-05-08 14:02:00,
2013-05-08 07:11:00,41.0,41.0,-100.00,West,275,7.0,12.0,99,-99.99,,,-99.99,,2013-05-08 14:11:00,
2013-05-08 07:21:00,41.0,41.0,-100.00,West,272,8.0,12.0,99,-99.99,,,-99.99,,2013-05-08 14:21:00,
2013-05-08 07:31:00,41.0,40.0,-100.00,West,260,6.0,11.0,97,-99.99,,,-99.99,,2013-05-08 14:31:00,
2013-05-08 07:42:00,41.0,40.0,-100.00,West,271,5.0,7.0,96,-99.99,,,-99.99,,2013-05-08 14:42:00,
2013-05-08 07:51:00,41.0,40.0,-100.00,West,269,4.0,6.0,96,-99.99,,,-99.99,,2013-05-08 14:51:00,
2013-05-08 08:01:00,41.0,40.0,-100.00,West,269,5.0,8.0,96,-99.99,,,-99.99,,2013-05-08 15:01:00,
2013-05-08 08:11:00,42.0,40.0,-100.00,West,272,6.0,8.0,94,-99.99,,,-99.99,,2013-05-08 15:11:00,
2013-05-08 08:21:00,43.0,41.0,-100.00,West,269,7.0,13.0,91,-99.99,,,-99.99,,2013-05-08 15:21:00,
2013-05-08 08:32:00,43.0,40.0,-100.00,West,275,9.0,13.0,89,-99.99,,,-99.99,,2013-05-08 15:32:00,
2013-05-08 08:42:00,44.0,41.0,-100.00,West,266,10.0,18.0,89,-99.99,,,-99.99,,2013-05-08 15:42:00,
2013-05-08 08:52:00,44.0,40.0,-100.00,WNW,284,12.0,20.0,87,-99.99,,,-99.99,,2013-05-08 15:52:00,
2013-05-08 09:02:00,44.0,40.0,-100.00,WSW,247,8.0,13.0,87,-99.99,,,-99.99,,2013-05-08 16:02:00,
2013-05-08 09:12:00,44.0,40.0,-100.00,West,270,4.0,10.0,86,-99.99,,,-99.99,,2013-05-08 16:12:00,
2013-05-08 09:23:00,44.0,41.0,-100.00,West,277,8.0,15.0,89,-99.99,,,-99.99,,2013-05-08 16:23:00,
2013-05-08 09:33:00,44.0,41.0,-100.00,West,271,9.0,17.0,89,-99.99,,,-99.99,,2013-05-08 16:33:00,
2013-05-08 09:42:00,43.0,41.0,-100.00,West,271,8.0,12.0,92,-99.99,,,-99.99,,2013-05-08 16:42:00,
2013-05-08 09:52:00,43.0,41.0,-100.00,WNW,286,8.0,12.0,92,-99.99,,,-99.99,,2013-05-08 16:52:00,
2013-05-08 10:02:00,44.0,41.0,-100.00,WNW,295,9.0,13.0,90,-99.99,,,-99.99,,2013-05-08 17:02:00,
2013-05-08 10:11:00,44.0,41.0,-100.00,WNW,288,10.0,15.0,90,-99.99,,,-99.99,,2013-05-08 17:11:00,
2013-05-08 10:22:00,45.0,42.0,-100.00,WNW,289,8.0,13.0,88,-99.99,,,-99.99,,2013-05-08 17:22:00,
2013-05-08 10:31:00,46.0,41.0,-100.00,West,266,9.0,16.0,83,-99.99,,,-99.99,,2013-05-08 17:31:00,
2013-05-08 10:41:00,46.0,41.0,-100.00,West,266,9.0,16.0,83,-99.99,,,-99.99,,2013-05-08 17:41:00,
2013-05-08 10:52:00,46.0,41.0,-100.00,West,272,10.0,14.0,83,-99.99,,,-99.99,,2013-05-08 17:52:00,
2013-05-08 11:01:00,47.0,41.0,-100.00,WSW,256,8.0,14.0,78,-99.99,,,-99.99,,2013-05-08 18:01:00,
2013-05-08 11:11:00,47.0,41.0,-100.00,WSW,252,8.0,13.0,79,-99.99,,,-99.99,,2013-05-08 18:11:00,
2013-05-08 11:21:00,48.0,43.0,-100.00,SW,228,8.0,11.0,82,-99.99,,,-99.99,,2013-05-08 18:21:00,
2013-05-08 11:31:00,48.0,42.0,-100.00,SSW,212,5.0,9.0,80,-99.99,,,-99.99,,2013-05-08 18:31:00,
2013-05-08 11:42:00,50.0,43.0,-100.00,South,174,3.0,8.0,76,-99.99,,,-99.99,,2013-05-08 18:42:00,
2013-05-08 11:51:00,50.0,42.0,-100.00,SW,235,4.0,11.0,74,-99.99,,,-99.99,,2013-05-08 18:51:00,
2013-05-08 12:01:00,50.0,42.0,-100.00,SW,235,4.0,11.0,74,-99.99,,,-99.99,,2013-05-08 19:01:00,
2013-05-08 12:11:00,50.0,43.0,-100.00,WSW,249,9.0,14.0,76,-99.99,,,-99.99,,2013-05-08 19:11:00,
2013-05-08 12:21:00,50.0,42.0,-100.00,West,275,7.0,11.0,75,-99.99,,,-99.99,,2013-05-08 19:21:00,
2013-05-08 12:32:00,50.0,43.0,-100.00,West,261,10.0,17.0,78,-99.99,,,-99.99,,2013-05-08 19:32:00,
2013-05-08 12:41:00,50.0,43.0,-100.00,WSW,256,9.0,13.0,78,-99.99,,,-99.99,,2013-05-08 19:41:00,
2013-05-08 12:52:00,51.0,44.0,-100.00,WSW,244,6.0,12.0,77,-99.99,,,-99.99,,2013-05-08 19:52:00,
2013-05-08 13:01:00,52.0,44.0,-100.00,SW,233,7.0,14.0,75,-99.99,,,-99.99,,2013-05-08 20:01:00,
2013-05-08 13:11:00,53.0,44.0,-100.00,SW,236,7.0,12.0,72,-99.99,,,-99.99,,2013-05-08 20:11:00,
2013-05-08 13:22:00,53.0,43.0,-100.00,West,260,8.0,12.0,70,-99.99,,,-99.99,,2013-05-08 20:22:00,
2013-05-08 13:32:00,53.0,44.0,-100.00,WSW,245,8.0,13.0,71,-99.99,,,-99.99,,2013-05-08 20:32:00,
2013-05-08 13:41:00,54.0,44.0,-100.00,WSW,244,7.0,12.0,69,-99.99,,,-99.99,,2013-05-08 20:41:00,
2013-05-08 13:51:00,54.0,45.0,-100.00,SW,236,9.0,14.0,72,-99.99,,,-99.99,,2013-05-08 20:51:00,
2013-05-08 14:01:00,55.0,46.0,-100.00,WSW,241,10.0,16.0,71,-99.99,,,-99.99,,2013-05-08 21:01:00,
2013-05-08 14:11:00,53.0,45.0,-100.00,SW,234,11.0,17.0,74,-99.99,,,-99.99,,2013-05-08 21:11:00,
2013-05-08 14:21:00,52.0,45.0,-100.00,SW,233,11.0,17.0,77,-99.99,,,-99.99,,2013-05-08 21:21:00,
2013-05-08 14:32:00,53.0,46.0,-100.00,SW,220,10.0,16.0,76,-99.99,,,-99.99,,2013-05-08 21:32:00,
2013-05-08 14:43:00,54.0,46.0,-100.00,SW,223,11.0,19.0,74,-99.99,,,-99.99,,2013-05-08 21:43:00,
2013-05-08 14:52:00,53.0,46.0,-100.00,WSW,243,12.0,19.0,76,-99.99,,,-99.99,,2013-05-08 21:52:00,
2013-05-08 15:02:00,53.0,46.0,-100.00,WSW,243,12.0,19.0,76,-99.99,,,-99.99,,2013-05-08 22:02:00,
2013-05-08 15:12:00,54.0,46.0,-100.00,SW,233,10.0,16.0,74,-99.99,,,-99.99,,2013-05-08 22:12:00,
2013-05-08 15:22:00,53.0,46.0,-100.00,WSW,239,11.0,19.0,76,-99.99,,,-99.99,,2013-05-08 22:22:00,
2013-05-08 15:33:00,52.0,45.0,-100.00,SW,219,11.0,16.0,77,-99.99,,,-99.99,,2013-05-08 22:33:00,
2013-05-08 15:42:00,52.0,45.0,-100.00,SW,232,12.0,18.0,78,-99.99,,,-99.99,,2013-05-08 22:42:00,
2013-05-08 15:52:00,52.0,46.0,-100.00,SW,228,12.0,18.0,80,-99.99,,,-99.99,,2013-05-08 22:52:00,
2013-05-08 16:01:00,51.0,45.0,-100.00,WSW,241,11.0,17.0,81,-99.99,,,-99.99,,2013-05-08 23:01:00,
2013-05-08 16:11:00,51.0,45.0,-100.00,WSW,249,12.0,18.0,81,-99.99,,,-99.99,,2013-05-08 23:11:00,
2013-05-08 16:22:00,50.0,45.0,-100.00,SW,225,11.0,17.0,84,-99.99,,,-99.99,,2013-05-08 23:22:00,
2013-05-08 16:32:00,50.0,46.0,-100.00,WSW,248,12.0,16.0,85,-99.99,,,-99.99,,2013-05-08 23:32:00,
2013-05-08 16:42:00,49.0,45.0,-100.00,WSW,251,11.0,16.0,87,-99.99,,,-99.99,,2013-05-08 23:42:00,
2013-05-08 16:52:00,49.0,46.0,-100.00,WSW,250,12.0,17.0,88,-99.99,,,-99.99,,2013-05-08 23:52:00,
2013-05-08 17:01:00,49.0,46.0,-100.00,WSW,243,12.0,16.0,89,-99.99,,,-99.99,,2013-05-09 00:01:00,
2013-05-08 17:11:00,48.0,45.0,-100.00,WSW,254,13.0,18.0,90,-99.99,,,-99.99,,2013-05-09 00:11:00,
2013-05-08 17:21:00,48.0,46.0,-100.00,West,259,14.0,17.0,92,-99.99,,,-99.99,,2013-05-09 00:21:00,
2013-05-08 17:32:00,47.0,45.0,-100.00,WSW,257,14.0,18.0,91,-99.99,,,-99.99,,2013-05-09 00:32:00,
2013-05-08 17:42:00,47.0,45.0,-100.00,WSW,257,14.0,18.0,91,-99.99,,,-99.99,,2013-05-09 00:42:00,
2013-05-08 17:51:00,47.0,45.0,-100.00,WSW,242,10.0,14.0,93,-99.99,,,-99.99,,2013-05-09 00:51:00,
2013-05-08 18:01:00,46.0,44.0,-100.00,WSW,239,11.0,15.0,94,-99.99,,,-99.99,,2013-05-09 01:01:00,
2013-05-08 18:11:00,46.0,45.0,-100.00,WSW,241,10.0,14.0,96,-99.99,,,-99.99,,2013-05-09 01:11:00,
2013-05-08 18:22:00,46.0,45.0,-100.00,SW,231,9.0,13.0,97,-99.99,,,-99.99,,2013-05-09 01:22:00,
2013-05-08 18:32:00,46.0,45.0,-100.00,WSW,255,9.0,13.0,97,-99.99,,,-99.99,,2013-05-09 01:32:00,
2013-05-08 18:42:00,45.0,44.0,-100.00,WSW,237,9.0,13.0,98,-99.99,,,-99.99,,2013-05-09 01:42:00,
2013-05-08 18:50:00,44.0,44.0,-100.00,SW,235,9.0,13.0,99,-99.99,,,-99.99,,2013-05-09 01:50:00,
2013-05-08 18:52:00,45.0,44.0,-100.00,WSW,239,8.0,12.0,98,-99.99,,,-99.99,,2013-05-09 01:52:00,
2013-05-08 19:02:00,45.0,44.0,-100.00,SW,235,9.0,12.0,98,-99.99,,,-99.99,,2013-05-09 02:02:00,
2013-05-08 19:11:00,44.0,44.0,-100.00,SW,235,9.0,12.0,99,-99.99,,,-99.99,,2013-05-09 02:11:00,
2013-05-08 19:21:00,44.0,44.0,-100.00,SW,235,9.0,13.0,99,-99.99,,,-99.99,,2013-05-09 02:21:00,
2013-05-08 19:32:00,44.0,44.0,-100.00,SW,235,9.0,13.0,99,-99.99,,,-99.99,,2013-05-09 02:32:00,
2013-05-08 19:41:00,44.0,44.0,-100.00,SW,235,9.0,13.0,99,-99.99,,,-99.99,,2013-05-09 02:41:00,
2013-05-08 20:01:00,44.0,44.0,-100.00,SW,228,6.0,9.0,99,-99.99,,,-99.99,,2013-05-09 03:01:00,
2013-05-08 20:11:00,44.0,44.0,-100.00,SW,215,6.0,9.0,99,-99.99,,,-99.99,,2013-05-09 03:11:00,
2013-05-08 20:21:00,44.0,44.0,-100.00,SSW,210,4.0,7.0,99,-99.99,,,-99.99,,2013-05-09 03:21:00,
2013-05-08 20:33:00,44.0,44.0,-100.00,South,178,3.0,6.0,99,-99.99,,,-99.99,,2013-05-09 03:33:00,
2013-05-08 20:43:00,44.0,44.0,-100.00,South,190,4.0,6.0,99,-99.99,,,-99.99,,2013-05-09 03:43:00,
2013-05-08 20:52:00,44.0,44.0,-100.00,SSW,210,4.0,6.0,99,-99.99,,,-99.99,,2013-05-09 03:52:00,
2013-05-08 21:03:00,44.0,44.0,-100.00,SSW,210,4.0,6.0,99,-99.99,,,-99.99,,2013-05-09 04:03:00,
2013-05-08 21:12:00,44.0,44.0,-100.00,SSW,193,6.0,8.0,99,-99.99,,,-99.99,,2013-05-09 04:12:00,
2013-05-08 21:23:00,44.0,44.0,-100.00,South,188,5.0,7.0,99,-99.99,,,-99.99,,2013-05-09 04:23:00,
2013-05-08 21:32:00,44.0,44.0,-100.00,SSW,205,4.0,7.0,99,-99.99,,,-99.99,,2013-05-09 04:32:00,
2013-05-08 21:42:00,44.0,44.0,-100.00,WSW,243,3.0,5.0,99,-99.99,,,-99.99,,2013-05-09 04:42:00,
2013-05-08 21:52:00,44.0,44.0,-100.00,SSW,205,3.0,6.0,99,-99.99,,,-99.99,,2013-05-09 04:52:00,
2013-05-08 22:02:00,44.0,44.0,-100.00,SW,232,4.0,6.0,99,-99.99,,,-99.99,,2013-05-09 05:02:00,
2013-05-08 22:11:00,44.0,44.0,-100.00,South,188,3.0,4.0,99,-99.99,,,-99.99,,2013-05-09 05:11:00,
2013-05-08 22:22:00,44.0,44.0,-100.00,SW,222,2.0,5.0,99,-99.99,,,-99.99,,2013-05-09 05:22:00,
2013-05-08 22:32:00,44.0,44.0,-100.00,WSW,237,4.0,6.0,99,-99.99,,,-99.99,,2013-05-09 05:32:00,
2013-05-08 22:42:00,44.0,44.0,-100.00,SW,224,4.0,9.0,99,-99.99,,,-99.99,,2013-05-09 05:42:00,
2013-05-08 22:51:00,43.0,43.0,-100.00,SSW,207,5.0,8.0,99,-99.99,,,-99.99,,2013-05-09 05:51:00,
2013-05-08 23:01:00,43.0,43.0,-100.00,SSW,205,5.0,8.0,99,-99.99,,,-99.99,,2013-05-09 06:01:00,
2013-05-08 23:11:00,43.0,43.0,-100.00,SW,220,6.0,8.0,99,-99.99,,,-99.99,,2013-05-09 06:11:00,
2013-05-08 23:21:00,43.0,43.0,-100.00,WSW,247,6.0,9.0,99,-99.99,,,-99.99,,2013-05-09 06:21:00,
2013-05-08 23:32:00,43.0,43.0,-100.00,WSW,242,4.0,7.0,99,-99.99,,,-99.99,,2013-05-09 06:32:00,
2013-05-08 23:42:00,43.0,43.0,-100.00,SW,223,4.0,7.0,99,-99.99,,,-99.99,,2013-05-09 06:42:00,
2013-05-08 23:52:00,43.0,43.0,-100.00,SSW,202,4.0,6.0,99,-99.99,,,-99.99,,2013-05-09 06:52:00,